sensor_id;sensor_type;location;lat;lon;timestamp;pressure;altitude;pressure_sealevel;temperature;humidity
34658;BME280;20865;43.312;27.152;2023-04-27T00:01:52;99960.29;;;19.41;39.33
34658;BME280;20865;43.312;27.152;2023-04-27T00:04:19;99961.98;;;19.36;39.18
34658;BME280;20865;43.312;27.152;2023-04-27T00:06:46;99965.06;;;19.37;39.05
34658;BME280;20865;43.312;27.152;2023-04-27T00:09:13;99965.27;;;19.34;38.49
34658;BME280;20865;43.312;27.152;2023-04-27T00:11:40;99969.42;;;19.14;38.91
34658;BME280;20865;43.312;27.152;2023-04-27T00:14:07;99975.30;;;19.14;38.58
34658;BME280;20865;43.312;27.152;2023-04-27T00:16:34;99970.50;;;19.12;38.33
34658;BME280;20865;43.312;27.152;2023-04-27T00:19:01;99968.87;;;19.09;37.97
34658;BME280;20865;43.312;27.152;2023-04-27T00:21:28;99973.02;;;18.82;37.97
34658;BME280;20865;43.312;27.152;2023-04-27T00:23:54;99966.32;;;18.88;38.12
34658;BME280;20865;43.312;27.152;2023-04-27T00:26:21;99968.91;;;18.89;37.93
34658;BME280;20865;43.312;27.152;2023-04-27T00:28:48;99977.54;;;18.62;37.87
34658;BME280;20865;43.312;27.152;2023-04-27T00:31:15;99977.33;;;18.52;38.19
34658;BME280;20865;43.312;27.152;2023-04-27T00:33:42;99976.47;;;18.51;38.00
34658;BME280;20865;43.312;27.152;2023-04-27T00:36:08;99980.06;;;18.45;38.11
34658;BME280;20865;43.312;27.152;2023-04-27T00:38:35;99985.67;;;18.42;38.32
34658;BME280;20865;43.312;27.152;2023-04-27T00:41:02;99988.35;;;18.49;38.20
34658;BME280;20865;43.312;27.152;2023-04-27T00:43:30;99977.41;;;18.50;38.14
34658;BME280;20865;43.312;27.152;2023-04-27T00:45:57;99982.31;;;18.38;37.79
34658;BME280;20865;43.312;27.152;2023-04-27T00:48:25;99984.19;;;18.30;37.81
34658;BME280;20865;43.312;27.152;2023-04-27T00:50:52;99978.00;;;18.28;37.88
34658;BME280;20865;43.312;27.152;2023-04-27T00:53:18;99977.72;;;18.26;37.92
34658;BME280;20865;43.312;27.152;2023-04-27T00:55:46;99985.63;;;18.29;37.88
34658;BME280;20865;43.312;27.152;2023-04-27T00:58:13;99976.83;;;18.32;37.39
34658;BME280;20865;43.312;27.152;2023-04-27T01:00:40;99980.54;;;18.24;37.18
34658;BME280;20865;43.312;27.152;2023-04-27T01:03:07;99980.05;;;18.25;37.10
34658;BME280;20865;43.312;27.152;2023-04-27T01:05:34;99984.82;;;18.14;36.85
34658;BME280;20865;43.312;27.152;2023-04-27T01:08:02;99979.52;;;18.05;36.73
34658;BME280;20865;43.312;27.152;2023-04-27T01:10:29;99986.48;;;18.02;36.87
34658;BME280;20865;43.312;27.152;2023-04-27T01:12:56;99987.38;;;17.89;36.53
34658;BME280;20865;43.312;27.152;2023-04-27T01:15:23;99989.84;;;17.57;36.95
34658;BME280;20865;43.312;27.152;2023-04-27T01:17:56;100007.64;;;17.74;36.67
34658;BME280;20865;43.312;27.152;2023-04-27T01:20:18;100005.56;;;17.79;36.78
34658;BME280;20865;43.312;27.152;2023-04-27T01:22:44;100004.00;;;17.90;37.08
34658;BME280;20865;43.312;27.152;2023-04-27T01:25:11;100011.26;;;17.82;36.39
34658;BME280;20865;43.312;27.152;2023-04-27T01:27:38;100017.23;;;17.80;36.24
34658;BME280;20865;43.312;27.152;2023-04-27T01:30:05;100017.12;;;17.96;36.47
34658;BME280;20865;43.312;27.152;2023-04-27T01:32:35;100022.03;;;17.96;36.90
34658;BME280;20865;43.312;27.152;2023-04-27T01:35:01;100024.54;;;17.99;36.87
34658;BME280;20865;43.312;27.152;2023-04-27T01:37:28;100030.80;;;18.07;37.32
34658;BME280;20865;43.312;27.152;2023-04-27T01:39:54;100018.65;;;18.00;36.94
34658;BME280;20865;43.312;27.152;2023-04-27T01:42:21;100029.64;;;18.04;36.32
34658;BME280;20865;43.312;27.152;2023-04-27T01:44:48;100015.54;;;17.99;36.39
34658;BME280;20865;43.312;27.152;2023-04-27T01:47:15;100017.98;;;17.96;35.44
34658;BME280;20865;43.312;27.152;2023-04-27T01:49:42;100022.72;;;17.93;35.71
34658;BME280;20865;43.312;27.152;2023-04-27T01:52:09;100034.28;;;17.95;36.15
34658;BME280;20865;43.312;27.152;2023-04-27T01:54:36;100031.39;;;17.91;36.18
34658;BME280;20865;43.312;27.152;2023-04-27T01:57:02;100028.98;;;17.72;35.87
34658;BME280;20865;43.312;27.152;2023-04-27T01:59:29;100034.97;;;17.84;35.93
34658;BME280;20865;43.312;27.152;2023-04-27T02:01:56;100037.86;;;17.81;35.82
34658;BME280;20865;43.312;27.152;2023-04-27T02:04:23;100037.58;;;17.71;35.80
34658;BME280;20865;43.312;27.152;2023-04-27T02:06:50;100042.76;;;17.74;36.05
34658;BME280;20865;43.312;27.152;2023-04-27T02:09:17;100041.73;;;17.77;35.83
34658;BME280;20865;43.312;27.152;2023-04-27T02:11:44;100046.92;;;17.66;35.83
34658;BME280;20865;43.312;27.152;2023-04-27T02:14:11;100047.98;;;17.70;35.86
34658;BME280;20865;43.312;27.152;2023-04-27T02:16:37;100045.20;;;17.57;35.58
34658;BME280;20865;43.312;27.152;2023-04-27T02:19:04;100047.61;;;17.48;36.06
34658;BME280;20865;43.312;27.152;2023-04-27T02:21:31;100050.13;;;17.58;36.00
34658;BME280;20865;43.312;27.152;2023-04-27T02:23:58;100047.42;;;17.58;36.07
34658;BME280;20865;43.312;27.152;2023-04-27T02:26:26;100066.88;;;17.70;36.70
34658;BME280;20865;43.312;27.152;2023-04-27T02:28:57;100061.63;;;17.76;36.46
34658;BME280;20865;43.312;27.152;2023-04-27T02:31:24;100073.77;;;17.83;36.85
34658;BME280;20865;43.312;27.152;2023-04-27T02:33:51;100073.40;;;17.82;36.12
34658;BME280;20865;43.312;27.152;2023-04-27T02:36:18;100074.74;;;17.89;37.01
34658;BME280;20865;43.312;27.152;2023-04-27T02:38:45;100088.06;;;17.92;37.31
34658;BME280;20865;43.312;27.152;2023-04-27T02:41:12;100082.84;;;17.89;36.89
34658;BME280;20865;43.312;27.152;2023-04-27T02:43:39;100089.28;;;17.72;36.68
34658;BME280;20865;43.312;27.152;2023-04-27T02:46:06;100097.30;;;17.81;37.24
34658;BME280;20865;43.312;27.152;2023-04-27T02:48:33;100093.82;;;17.72;36.30
34658;BME280;20865;43.312;27.152;2023-04-27T02:51:02;100093.11;;;17.47;36.13
34658;BME280;20865;43.312;27.152;2023-04-27T02:53:28;100101.81;;;17.66;36.89
34658;BME280;20865;43.312;27.152;2023-04-27T02:55:55;100101.63;;;17.69;36.72
34658;BME280;20865;43.312;27.152;2023-04-27T02:58:23;100107.89;;;17.70;36.78
34658;BME280;20865;43.312;27.152;2023-04-27T03:00:53;100111.94;;;17.70;36.68
34658;BME280;20865;43.312;27.152;2023-04-27T03:03:21;100118.58;;;17.57;35.54
34658;BME280;20865;43.312;27.152;2023-04-27T03:05:48;100119.36;;;17.59;36.14
34658;BME280;20865;43.312;27.152;2023-04-27T03:08:15;100119.67;;;17.61;37.10
34658;BME280;20865;43.312;27.152;2023-04-27T03:10:42;100140.68;;;17.63;36.29
34658;BME280;20865;43.312;27.152;2023-04-27T03:13:08;100148.03;;;17.69;36.05
34658;BME280;20865;43.312;27.152;2023-04-27T03:15:35;100143.64;;;17.82;35.90
34658;BME280;20865;43.312;27.152;2023-04-27T03:18:03;100151.27;;;17.82;36.14
34658;BME280;20865;43.312;27.152;2023-04-27T03:20:30;100141.47;;;17.73;36.11
34658;BME280;20865;43.312;27.152;2023-04-27T03:22:56;100148.38;;;17.85;35.98
34658;BME280;20865;43.312;27.152;2023-04-27T03:25:23;100150.59;;;17.86;35.80
34658;BME280;20865;43.312;27.152;2023-04-27T03:27:50;100143.83;;;17.79;35.70
34658;BME280;20865;43.312;27.152;2023-04-27T03:30:17;100142.97;;;17.78;36.25
34658;BME280;20865;43.312;27.152;2023-04-27T03:32:44;100150.25;;;17.69;36.85
34658;BME280;20865;43.312;27.152;2023-04-27T03:35:11;100159.41;;;17.67;36.78
34658;BME280;20865;43.312;27.152;2023-04-27T03:37:38;100155.36;;;17.74;36.46
34658;BME280;20865;43.312;27.152;2023-04-27T03:40:05;100152.58;;;17.75;36.83
34658;BME280;20865;43.312;27.152;2023-04-27T03:42:32;100143.20;;;17.74;37.39
34658;BME280;20865;43.312;27.152;2023-04-27T03:44:59;100162.93;;;17.76;36.94
34658;BME280;20865;43.312;27.152;2023-04-27T03:47:26;100155.69;;;17.76;36.91
34658;BME280;20865;43.312;27.152;2023-04-27T03:49:53;100157.97;;;17.61;36.36
34658;BME280;20865;43.312;27.152;2023-04-27T03:52:20;100164.91;;;17.58;37.04
34658;BME280;20865;43.312;27.152;2023-04-27T03:54:47;100171.84;;;17.55;37.16
34658;BME280;20865;43.312;27.152;2023-04-27T03:57:13;100169.41;;;17.13;38.12
34658;BME280;20865;43.312;27.152;2023-04-27T03:59:40;100162.42;;;17.32;38.20
34658;BME280;20865;43.312;27.152;2023-04-27T04:02:07;100169.58;;;17.33;38.39
34658;BME280;20865;43.312;27.152;2023-04-27T04:04:36;100172.20;;;17.19;38.42
34658;BME280;20865;43.312;27.152;2023-04-27T04:07:03;100170.69;;;17.29;38.69
34658;BME280;20865;43.312;27.152;2023-04-27T04:09:29;100173.35;;;17.14;38.88
34658;BME280;20865;43.312;27.152;2023-04-27T04:11:56;100180.14;;;17.29;39.34
34658;BME280;20865;43.312;27.152;2023-04-27T04:14:23;100179.89;;;17.33;38.77
34658;BME280;20865;43.312;27.152;2023-04-27T04:16:50;100176.59;;;17.35;38.93
34658;BME280;20865;43.312;27.152;2023-04-27T04:19:17;100180.67;;;17.43;39.43
34658;BME280;20865;43.312;27.152;2023-04-27T04:21:44;100184.23;;;17.43;38.24
34658;BME280;20865;43.312;27.152;2023-04-27T04:24:11;100181.35;;;17.46;38.10
34658;BME280;20865;43.312;27.152;2023-04-27T04:26:38;100181.73;;;17.33;38.16
34658;BME280;20865;43.312;27.152;2023-04-27T04:29:05;100179.50;;;17.39;38.28
34658;BME280;20865;43.312;27.152;2023-04-27T04:31:32;100184.53;;;17.46;38.61
34658;BME280;20865;43.312;27.152;2023-04-27T04:33:59;100189.95;;;17.53;39.17
34658;BME280;20865;43.312;27.152;2023-04-27T04:36:26;100183.88;;;17.56;39.05
34658;BME280;20865;43.312;27.152;2023-04-27T04:38:53;100186.89;;;17.59;38.69
34658;BME280;20865;43.312;27.152;2023-04-27T04:41:21;100195.00;;;17.66;38.84
34658;BME280;20865;43.312;27.152;2023-04-27T04:43:48;100197.52;;;17.62;39.14
34658;BME280;20865;43.312;27.152;2023-04-27T04:46:15;100192.91;;;17.71;39.36
34658;BME280;20865;43.312;27.152;2023-04-27T04:48:42;100205.93;;;17.72;38.50
34658;BME280;20865;43.312;27.152;2023-04-27T04:51:09;100206.20;;;17.74;38.47
34658;BME280;20865;43.312;27.152;2023-04-27T04:53:36;100204.02;;;17.81;38.70
34658;BME280;20865;43.312;27.152;2023-04-27T04:56:10;100208.48;;;17.82;37.77
34658;BME280;20865;43.312;27.152;2023-04-27T04:58:37;100208.27;;;17.78;38.08
34658;BME280;20865;43.312;27.152;2023-04-27T05:01:05;100205.19;;;17.77;37.28
34658;BME280;20865;43.312;27.152;2023-04-27T05:03:31;100211.41;;;17.70;38.05
34658;BME280;20865;43.312;27.152;2023-04-27T05:05:58;100204.55;;;17.57;37.77
34658;BME280;20865;43.312;27.152;2023-04-27T05:08:25;100205.47;;;17.49;37.47
34658;BME280;20865;43.312;27.152;2023-04-27T05:10:52;100213.17;;;17.41;37.42
34658;BME280;20865;43.312;27.152;2023-04-27T05:13:19;100220.13;;;17.45;37.71
34658;BME280;20865;43.312;27.152;2023-04-27T05:15:47;100212.03;;;17.45;37.84
34658;BME280;20865;43.312;27.152;2023-04-27T05:18:14;100215.12;;;17.53;37.72
34658;BME280;20865;43.312;27.152;2023-04-27T05:20:40;100215.12;;;17.53;37.66
34658;BME280;20865;43.312;27.152;2023-04-27T05:23:07;100220.00;;;17.39;38.40
34658;BME280;20865;43.312;27.152;2023-04-27T05:25:34;100224.86;;;17.49;37.92
34658;BME280;20865;43.312;27.152;2023-04-27T05:28:03;100221.28;;;17.41;37.99
34658;BME280;20865;43.312;27.152;2023-04-27T05:30:30;100225.98;;;17.37;37.79
34658;BME280;20865;43.312;27.152;2023-04-27T05:32:57;100225.25;;;17.20;38.08
34658;BME280;20865;43.312;27.152;2023-04-27T05:35:24;100229.84;;;17.33;38.20
34658;BME280;20865;43.312;27.152;2023-04-27T05:37:51;100223.58;;;17.33;37.90
34658;BME280;20865;43.312;27.152;2023-04-27T05:40:18;100226.57;;;17.43;37.92
34658;BME280;20865;43.312;27.152;2023-04-27T05:42:45;100226.87;;;17.45;37.74
34658;BME280;20865;43.312;27.152;2023-04-27T05:45:12;100227.77;;;17.53;37.75
34658;BME280;20865;43.312;27.152;2023-04-27T05:47:39;100228.73;;;17.52;37.20
34658;BME280;20865;43.312;27.152;2023-04-27T05:50:06;100222.95;;;17.51;36.92
34658;BME280;20865;43.312;27.152;2023-04-27T05:52:33;100217.83;;;17.53;36.94
34658;BME280;20865;43.312;27.152;2023-04-27T05:55:00;100222.47;;;17.51;36.57
34658;BME280;20865;43.312;27.152;2023-04-27T05:57:27;100217.38;;;17.54;36.13
34658;BME280;20865;43.312;27.152;2023-04-27T05:59:54;100224.59;;;17.60;35.69
34658;BME280;20865;43.312;27.152;2023-04-27T06:02:21;100228.45;;;17.56;35.42
34658;BME280;20865;43.312;27.152;2023-04-27T06:04:47;100213.41;;;17.59;35.37
34658;BME280;20865;43.312;27.152;2023-04-27T06:07:14;100220.60;;;17.75;35.69
34658;BME280;20865;43.312;27.152;2023-04-27T06:09:41;100230.11;;;17.59;35.21
34658;BME280;20865;43.312;27.152;2023-04-27T06:12:08;100223.05;;;17.56;35.03
34658;BME280;20865;43.312;27.152;2023-04-27T06:14:36;100223.23;;;17.76;35.23
34658;BME280;20865;43.312;27.152;2023-04-27T06:17:03;100224.98;;;17.92;34.19
34658;BME280;20865;43.312;27.152;2023-04-27T06:19:30;100232.34;;;18.04;34.47
34658;BME280;20865;43.312;27.152;2023-04-27T06:21:57;100231.17;;;18.01;34.70
34658;BME280;20865;43.312;27.152;2023-04-27T06:24:24;100232.16;;;18.00;34.71
34658;BME280;20865;43.312;27.152;2023-04-27T06:26:51;100234.94;;;18.05;34.90
34658;BME280;20865;43.312;27.152;2023-04-27T06:29:17;100232.64;;;18.06;34.86
34658;BME280;20865;43.312;27.152;2023-04-27T06:31:44;100233.70;;;18.04;34.66
34658;BME280;20865;43.312;27.152;2023-04-27T06:34:11;100229.44;;;17.93;33.60
34658;BME280;20865;43.312;27.152;2023-04-27T06:36:38;100239.26;;;17.79;33.48
34658;BME280;20865;43.312;27.152;2023-04-27T06:39:07;100243.83;;;18.00;33.76
34658;BME280;20865;43.312;27.152;2023-04-27T06:41:33;100241.50;;;18.01;33.95
34658;BME280;20865;43.312;27.152;2023-04-27T06:44:00;100244.02;;;18.04;33.72
34658;BME280;20865;43.312;27.152;2023-04-27T06:46:27;100236.48;;;18.09;33.16
34658;BME280;20865;43.312;27.152;2023-04-27T06:48:54;100251.08;;;18.07;32.58
34658;BME280;20865;43.312;27.152;2023-04-27T06:51:21;100244.58;;;17.95;32.81
34658;BME280;20865;43.312;27.152;2023-04-27T06:53:48;100260.02;;;17.86;33.55
34658;BME280;20865;43.312;27.152;2023-04-27T06:56:15;100243.39;;;17.85;32.79
34658;BME280;20865;43.312;27.152;2023-04-27T06:58:41;100252.67;;;17.88;32.62
34658;BME280;20865;43.312;27.152;2023-04-27T07:01:08;100246.52;;;17.86;32.41
34658;BME280;20865;43.312;27.152;2023-04-27T07:03:35;100257.83;;;18.00;32.39
34658;BME280;20865;43.312;27.152;2023-04-27T07:06:02;100261.71;;;18.17;32.72
34658;BME280;20865;43.312;27.152;2023-04-27T07:08:29;100264.91;;;18.24;32.80
34658;BME280;20865;43.312;27.152;2023-04-27T07:10:56;100256.00;;;18.43;31.74
34658;BME280;20865;43.312;27.152;2023-04-27T07:13:23;100256.80;;;18.31;32.77
34658;BME280;20865;43.312;27.152;2023-04-27T07:15:53;100259.00;;;18.53;33.12
34658;BME280;20865;43.312;27.152;2023-04-27T07:18:22;100255.31;;;18.54;33.73
34658;BME280;20865;43.312;27.152;2023-04-27T07:20:49;100256.84;;;18.65;33.02
34658;BME280;20865;43.312;27.152;2023-04-27T07:23:16;100260.16;;;18.63;33.40
34658;BME280;20865;43.312;27.152;2023-04-27T07:25:43;100264.78;;;18.61;33.52
34658;BME280;20865;43.312;27.152;2023-04-27T07:28:11;100262.55;;;18.68;33.14
34658;BME280;20865;43.312;27.152;2023-04-27T07:30:38;100259.38;;;18.75;33.35
34658;BME280;20865;43.312;27.152;2023-04-27T07:33:06;100260.05;;;18.79;33.21
34658;BME280;20865;43.312;27.152;2023-04-27T07:35:33;100262.09;;;18.75;32.80
34658;BME280;20865;43.312;27.152;2023-04-27T07:38:00;100264.09;;;18.65;31.96
34658;BME280;20865;43.312;27.152;2023-04-27T07:40:28;100256.97;;;18.78;32.15
34658;BME280;20865;43.312;27.152;2023-04-27T07:42:55;100264.58;;;18.86;31.60
34658;BME280;20865;43.312;27.152;2023-04-27T07:45:23;100253.72;;;19.00;32.03
34658;BME280;20865;43.312;27.152;2023-04-27T07:47:51;100263.27;;;19.13;31.56
34658;BME280;20865;43.312;27.152;2023-04-27T07:50:18;100258.11;;;19.22;31.78
34658;BME280;20865;43.312;27.152;2023-04-27T07:52:46;100259.35;;;19.24;30.73
34658;BME280;20865;43.312;27.152;2023-04-27T07:55:13;100260.36;;;19.43;30.58
34658;BME280;20865;43.312;27.152;2023-04-27T07:57:41;100266.73;;;19.42;30.23
34658;BME280;20865;43.312;27.152;2023-04-27T08:00:08;100264.66;;;19.33;29.24
34658;BME280;20865;43.312;27.152;2023-04-27T08:02:36;100264.56;;;19.54;30.18
34658;BME280;20865;43.312;27.152;2023-04-27T08:05:03;100266.69;;;19.63;29.79
34658;BME280;20865;43.312;27.152;2023-04-27T08:07:30;100266.69;;;19.63;29.96
34658;BME280;20865;43.312;27.152;2023-04-27T08:09:56;100271.16;;;19.77;29.51
34658;BME280;20865;43.312;27.152;2023-04-27T08:12:23;100269.81;;;19.70;29.34
34658;BME280;20865;43.312;27.152;2023-04-27T08:14:50;100260.94;;;19.88;29.10
34658;BME280;20865;43.312;27.152;2023-04-27T08:17:18;100272.68;;;19.94;29.37
34658;BME280;20865;43.312;27.152;2023-04-27T08:19:46;100267.47;;;19.91;29.04
34658;BME280;20865;43.312;27.152;2023-04-27T08:22:13;100270.77;;;20.09;29.44
34658;BME280;20865;43.312;27.152;2023-04-27T08:24:40;100268.80;;;20.11;29.85
34658;BME280;20865;43.312;27.152;2023-04-27T08:27:07;100260.61;;;20.18;29.51
34658;BME280;20865;43.312;27.152;2023-04-27T08:29:34;100267.73;;;20.26;29.70
34658;BME280;20865;43.312;27.152;2023-04-27T08:32:01;100260.41;;;20.34;29.37
34658;BME280;20865;43.312;27.152;2023-04-27T08:34:28;100266.58;;;20.10;28.76
34658;BME280;20865;43.312;27.152;2023-04-27T08:36:56;100262.34;;;20.32;29.22
34658;BME280;20865;43.312;27.152;2023-04-27T08:39:23;100275.00;;;20.13;29.44
34658;BME280;20865;43.312;27.152;2023-04-27T08:41:50;100274.89;;;20.27;29.52
34658;BME280;20865;43.312;27.152;2023-04-27T08:44:17;100276.58;;;19.77;29.25
34658;BME280;20865;43.312;27.152;2023-04-27T08:46:44;100278.13;;;20.07;29.34
34658;BME280;20865;43.312;27.152;2023-04-27T08:49:10;100271.16;;;20.22;28.47
34658;BME280;20865;43.312;27.152;2023-04-27T08:51:37;100267.77;;;20.44;29.25
34658;BME280;20865;43.312;27.152;2023-04-27T08:54:04;100265.73;;;20.61;29.42
34658;BME280;20865;43.312;27.152;2023-04-27T08:56:31;100275.54;;;20.56;28.49
34658;BME280;20865;43.312;27.152;2023-04-27T08:58:59;100272.33;;;20.69;28.77
34658;BME280;20865;43.312;27.152;2023-04-27T09:01:28;100276.62;;;20.85;28.15
34658;BME280;20865;43.312;27.152;2023-04-27T09:03:55;100268.38;;;21.05;28.53
34658;BME280;20865;43.312;27.152;2023-04-27T09:06:34;100269.89;;;21.33;28.14
34658;BME280;20865;43.312;27.152;2023-04-27T09:08:57;100266.40;;;21.25;27.34
34658;BME280;20865;43.312;27.152;2023-04-27T09:11:32;100265.44;;;21.50;27.02
34658;BME280;20865;43.312;27.152;2023-04-27T09:13:56;100260.55;;;21.61;27.23
34658;BME280;20865;43.312;27.152;2023-04-27T09:16:24;100261.86;;;21.79;27.48
34658;BME280;20865;43.312;27.152;2023-04-27T09:18:52;100261.59;;;21.82;26.91
34658;BME280;20865;43.312;27.152;2023-04-27T09:21:26;100256.03;;;21.78;26.98
34658;BME280;20865;43.312;27.152;2023-04-27T09:23:53;100262.62;;;21.52;26.74
34658;BME280;20865;43.312;27.152;2023-04-27T09:26:21;100257.42;;;21.84;27.44
34658;BME280;20865;43.312;27.152;2023-04-27T09:28:49;100252.23;;;21.92;27.17
34658;BME280;20865;43.312;27.152;2023-04-27T09:31:16;100249.41;;;21.99;27.24
34658;BME280;20865;43.312;27.152;2023-04-27T09:33:44;100249.07;;;22.04;27.40
34658;BME280;20865;43.312;27.152;2023-04-27T09:36:12;100249.70;;;22.07;26.92
34658;BME280;20865;43.312;27.152;2023-04-27T09:38:39;100247.13;;;22.17;27.75
34658;BME280;20865;43.312;27.152;2023-04-27T09:41:06;100248.00;;;22.34;28.05
34658;BME280;20865;43.312;27.152;2023-04-27T09:43:33;100249.52;;;22.39;27.28
34658;BME280;20865;43.312;27.152;2023-04-27T09:46:02;100249.76;;;22.47;27.60
34658;BME280;20865;43.312;27.152;2023-04-27T09:48:30;100243.31;;;22.48;27.38
34658;BME280;20865;43.312;27.152;2023-04-27T09:50:57;100253.46;;;22.40;27.21
34658;BME280;20865;43.312;27.152;2023-04-27T09:54:06;100245.16;;;22.42;27.37
34658;BME280;20865;43.312;27.152;2023-04-27T10:01:20;100239.72;;;22.19;27.74
34658;BME280;20865;43.312;27.152;2023-04-27T10:04:04;100245.09;;;22.02;27.69
34658;BME280;20865;43.312;27.152;2023-04-27T10:08:57;100243.19;;;21.86;28.19
34658;BME280;20865;43.312;27.152;2023-04-27T10:11:36;100251.23;;;21.76;28.20
34658;BME280;20865;43.312;27.152;2023-04-27T10:14:06;100240.84;;;21.81;28.24
34658;BME280;20865;43.312;27.152;2023-04-27T10:16:53;100241.09;;;21.89;28.13
34658;BME280;20865;43.312;27.152;2023-04-27T10:19:21;100240.58;;;21.79;27.94
34658;BME280;20865;43.312;27.152;2023-04-27T10:21:55;100243.07;;;21.76;28.75
34658;BME280;20865;43.312;27.152;2023-04-27T10:27:05;100242.62;;;21.94;27.92
34658;BME280;20865;43.312;27.152;2023-04-27T10:32:08;100246.02;;;22.20;27.32
34658;BME280;20865;43.312;27.152;2023-04-27T10:34:35;100245.91;;;22.21;27.62
34658;BME280;20865;43.312;27.152;2023-04-27T10:37:08;100247.77;;;22.38;27.43
34658;BME280;20865;43.312;27.152;2023-04-27T10:39:35;100251.34;;;22.38;26.82
34658;BME280;20865;43.312;27.152;2023-04-27T10:42:03;100250.38;;;22.39;26.52
34658;BME280;20865;43.312;27.152;2023-04-27T10:44:30;100250.73;;;22.34;27.01
34658;BME280;20865;43.312;27.152;2023-04-27T10:46:59;100256.92;;;22.48;27.61
34658;BME280;20865;43.312;27.152;2023-04-27T10:49:31;100263.09;;;22.27;26.60
34658;BME280;20865;43.312;27.152;2023-04-27T10:51:56;100266.05;;;22.24;26.52
34658;BME280;20865;43.312;27.152;2023-04-27T10:54:29;100256.50;;;22.07;27.20
34658;BME280;20865;43.312;27.152;2023-04-27T10:57:03;100257.22;;;22.09;27.17
34658;BME280;20865;43.312;27.152;2023-04-27T10:59:31;100252.00;;;21.95;27.70
34658;BME280;20865;43.312;27.152;2023-04-27T11:01:58;100261.91;;;22.02;27.81
34658;BME280;20865;43.312;27.152;2023-04-27T11:04:34;100254.22;;;21.96;27.18
34658;BME280;20865;43.312;27.152;2023-04-27T11:07:03;100252.27;;;21.98;27.38
34658;BME280;20865;43.312;27.152;2023-04-27T11:09:29;100260.14;;;21.84;27.41
34658;BME280;20865;43.312;27.152;2023-04-27T11:11:57;100261.13;;;21.88;28.06
34658;BME280;20865;43.312;27.152;2023-04-27T11:14:24;100261.63;;;21.88;27.71
34658;BME280;20865;43.312;27.152;2023-04-27T11:16:51;100260.91;;;22.03;28.58
34658;BME280;20865;43.312;27.152;2023-04-27T11:19:18;100251.92;;;22.08;28.56
34658;BME280;20865;43.312;27.152;2023-04-27T11:21:45;100263.84;;;22.29;28.18
34658;BME280;20865;43.312;27.152;2023-04-27T11:24:12;100251.98;;;22.36;27.74
34658;BME280;20865;43.312;27.152;2023-04-27T11:26:39;100266.80;;;22.26;27.71
34658;BME280;20865;43.312;27.152;2023-04-27T11:29:07;100265.19;;;22.24;28.09
34658;BME280;20865;43.312;27.152;2023-04-27T11:31:41;100273.72;;;22.19;28.50
34658;BME280;20865;43.312;27.152;2023-04-27T11:34:13;100275.84;;;22.21;28.24
34658;BME280;20865;43.312;27.152;2023-04-27T11:36:38;100274.83;;;22.28;28.38
34658;BME280;20865;43.312;27.152;2023-04-27T11:39:05;100271.49;;;22.24;28.26
34658;BME280;20865;43.312;27.152;2023-04-27T11:41:35;100277.43;;;22.24;28.96
34658;BME280;20865;43.312;27.152;2023-04-27T11:44:06;100274.37;;;22.28;28.45
34658;BME280;20865;43.312;27.152;2023-04-27T11:46:38;100269.72;;;22.12;28.12
34658;BME280;20865;43.312;27.152;2023-04-27T11:49:02;100269.27;;;22.24;28.48
34658;BME280;20865;43.312;27.152;2023-04-27T11:51:29;100274.61;;;22.37;28.47
34658;BME280;20865;43.312;27.152;2023-04-27T11:54:05;100273.48;;;22.22;29.31
34658;BME280;20865;43.312;27.152;2023-04-27T11:56:38;100278.92;;;22.22;28.68
34658;BME280;20865;43.312;27.152;2023-04-27T11:59:16;100283.38;;;22.34;27.98
34658;BME280;20865;43.312;27.152;2023-04-27T12:01:33;100280.05;;;22.25;28.81
34658;BME280;20865;43.312;27.152;2023-04-27T12:04:00;100282.72;;;22.14;29.12
34658;BME280;20865;43.312;27.152;2023-04-27T12:06:27;100277.43;;;22.24;28.53
34658;BME280;20865;43.312;27.152;2023-04-27T12:08:55;100284.84;;;22.16;28.66
34658;BME280;20865;43.312;27.152;2023-04-27T12:11:25;100288.09;;;22.32;29.19
34658;BME280;20865;43.312;27.152;2023-04-27T12:13:55;100283.70;;;22.07;29.02
34658;BME280;20865;43.312;27.152;2023-04-27T12:16:22;100287.45;;;22.23;28.99
34658;BME280;20865;43.312;27.152;2023-04-27T12:18:49;100290.98;;;22.12;29.02
34658;BME280;20865;43.312;27.152;2023-04-27T12:21:16;100290.23;;;22.10;29.65
34658;BME280;20865;43.312;27.152;2023-04-27T12:23:43;100289.81;;;21.93;30.52
34658;BME280;20865;43.312;27.152;2023-04-27T12:26:10;100286.05;;;21.47;29.82
34658;BME280;20865;43.312;27.152;2023-04-27T12:28:38;100291.25;;;21.45;30.75
34658;BME280;20865;43.312;27.152;2023-04-27T12:31:05;100279.83;;;21.34;30.53
34658;BME280;20865;43.312;27.152;2023-04-27T12:33:32;100292.13;;;21.32;30.44
34658;BME280;20865;43.312;27.152;2023-04-27T12:35:59;100284.51;;;21.19;31.39
34658;BME280;20865;43.312;27.152;2023-04-27T12:38:26;100282.11;;;21.27;31.28
34658;BME280;20865;43.312;27.152;2023-04-27T12:40:54;100278.84;;;21.59;30.82
34658;BME280;20865;43.312;27.152;2023-04-27T12:43:21;100276.22;;;21.57;31.43
34658;BME280;20865;43.312;27.152;2023-04-27T12:45:47;100279.30;;;21.53;31.64
34658;BME280;20865;43.312;27.152;2023-04-27T12:48:14;100280.47;;;21.67;30.67
34658;BME280;20865;43.312;27.152;2023-04-27T12:50:42;100279.11;;;21.67;31.18
34658;BME280;20865;43.312;27.152;2023-04-27T12:53:11;100279.67;;;21.89;31.12
34658;BME280;20865;43.312;27.152;2023-04-27T12:55:37;100278.17;;;21.79;32.29